sensor_id;sensor_type;location;lat;lon;timestamp;P1;durP1;ratioP1;P2;durP2;ratioP2
11016;SDS011;54687;50.800;6.772;2023-02-15T00:00:15;27.03;;;22.93;;
11016;SDS011;54687;50.800;6.772;2023-02-15T00:02:43;29.33;;;25.90;;
11016;SDS011;54687;50.800;6.772;2023-02-15T00:05:11;28.77;;;24.83;;
11016;SDS011;54687;50.800;6.772;2023-02-15T00:07:37;31.93;;;26.53;;
11016;SDS011;54687;50.800;6.772;2023-02-15T00:10:05;27.97;;;24.77;;
11016;SDS011;54687;50.800;6.772;2023-02-15T00:12:33;27.57;;;24.27;;
11016;SDS011;54687;50.800;6.772;2023-02-15T00:14:59;31.13;;;26.57;;
11016;SDS011;54687;50.800;6.772;2023-02-15T00:17:26;30.23;;;26.90;;
11016;SDS011;54687;50.800;6.772;2023-02-15T00:19:53;31.40;;;27.23;;
11016;SDS011;54687;50.800;6.772;2023-02-15T00:22:21;30.93;;;26.57;;
11016;SDS011;54687;50.800;6.772;2023-02-15T00:24:48;33.13;;;28.47;;
11016;SDS011;54687;50.800;6.772;2023-02-15T00:27:15;30.73;;;27.37;;
11016;SDS011;54687;50.800;6.772;2023-02-15T00:29:41;32.03;;;27.53;;
11016;SDS011;54687;50.800;6.772;2023-02-15T00:32:08;32.30;;;27.80;;
11016;SDS011;54687;50.800;6.772;2023-02-15T00:34:34;32.07;;;28.57;;
11016;SDS011;54687;50.800;6.772;2023-02-15T00:37:01;34.07;;;28.47;;
11016;SDS011;54687;50.800;6.772;2023-02-15T00:39:29;33.87;;;29.30;;
11016;SDS011;54687;50.800;6.772;2023-02-15T00:41:56;33.07;;;27.53;;
11016;SDS011;54687;50.800;6.772;2023-02-15T00:44:22;31.67;;;28.23;;
11016;SDS011;54687;50.800;6.772;2023-02-15T00:46:49;31.20;;;27.17;;
11016;SDS011;54687;50.800;6.772;2023-02-15T00:49:15;31.90;;;28.43;;
11016;SDS011;54687;50.800;6.772;2023-02-15T00:51:42;32.33;;;28.27;;
11016;SDS011;54687;50.800;6.772;2023-02-15T00:54:09;32.23;;;27.73;;
11016;SDS011;54687;50.800;6.772;2023-02-15T00:56:37;33.20;;;29.57;;
11016;SDS011;54687;50.800;6.772;2023-02-15T00:59:03;32.87;;;27.60;;
11016;SDS011;54687;50.800;6.772;2023-02-15T01:01:30;33.50;;;28.23;;
11016;SDS011;54687;50.800;6.772;2023-02-15T01:03:57;33.00;;;27.20;;
11016;SDS011;54687;50.800;6.772;2023-02-15T01:06:23;32.93;;;28.70;;
11016;SDS011;54687;50.800;6.772;2023-02-15T01:08:50;33.10;;;27.80;;
11016;SDS011;54687;50.800;6.772;2023-02-15T01:11:17;32.50;;;28.00;;
11016;SDS011;54687;50.800;6.772;2023-02-15T01:13:48;31.63;;;27.00;;
11016;SDS011;54687;50.800;6.772;2023-02-15T01:16:15;30.53;;;26.30;;
11016;SDS011;54687;50.800;6.772;2023-02-15T01:18:42;30.77;;;27.33;;
11016;SDS011;54687;50.800;6.772;2023-02-15T01:21:10;31.27;;;27.47;;
11016;SDS011;54687;50.800;6.772;2023-02-15T01:23:39;31.83;;;27.13;;
11016;SDS011;54687;50.800;6.772;2023-02-15T01:26:06;31.13;;;26.90;;
11016;SDS011;54687;50.800;6.772;2023-02-15T01:28:33;28.80;;;25.67;;
11016;SDS011;54687;50.800;6.772;2023-02-15T01:31:05;34.03;;;28.47;;
11016;SDS011;54687;50.800;6.772;2023-02-15T01:33:32;33.00;;;27.90;;
11016;SDS011;54687;50.800;6.772;2023-02-15T01:35:59;32.43;;;27.37;;
11016;SDS011;54687;50.800;6.772;2023-02-15T01:38:26;31.33;;;26.03;;
11016;SDS011;54687;50.800;6.772;2023-02-15T01:40:53;28.13;;;25.10;;
11016;SDS011;54687;50.800;6.772;2023-02-15T01:43:41;27.97;;;24.97;;
11016;SDS011;54687;50.800;6.772;2023-02-15T01:46:10;32.30;;;27.30;;
11016;SDS011;54687;50.800;6.772;2023-02-15T01:48:41;30.57;;;25.97;;
11016;SDS011;54687;50.800;6.772;2023-02-15T01:51:11;29.60;;;26.30;;
11016;SDS011;54687;50.800;6.772;2023-02-15T01:53:40;31.90;;;27.67;;
11016;SDS011;54687;50.800;6.772;2023-02-15T01:56:11;34.57;;;28.20;;
11016;SDS011;54687;50.800;6.772;2023-02-15T01:58:41;33.00;;;27.57;;
11016;SDS011;54687;50.800;6.772;2023-02-15T02:01:08;30.40;;;26.50;;
11016;SDS011;54687;50.800;6.772;2023-02-15T02:03:38;29.00;;;25.43;;
11016;SDS011;54687;50.800;6.772;2023-02-15T02:06:13;30.87;;;27.13;;
11016;SDS011;54687;50.800;6.772;2023-02-15T02:08:41;30.17;;;25.90;;
11016;SDS011;54687;50.800;6.772;2023-02-15T02:11:09;30.30;;;26.47;;
11016;SDS011;54687;50.800;6.772;2023-02-15T02:13:37;28.93;;;25.23;;
11016;SDS011;54687;50.800;6.772;2023-02-15T02:16:04;29.70;;;25.77;;
11016;SDS011;54687;50.800;6.772;2023-02-15T02:18:41;28.53;;;24.83;;
11016;SDS011;54687;50.800;6.772;2023-02-15T02:24:33;30.27;;;26.60;;
11016;SDS011;54687;50.800;6.772;2023-02-15T02:27:29;30.07;;;26.53;;
11016;SDS011;54687;50.800;6.772;2023-02-15T02:33:09;34.37;;;27.57;;
11016;SDS011;54687;50.800;6.772;2023-02-15T02:35:56;32.83;;;28.13;;
11016;SDS011;54687;50.800;6.772;2023-02-15T02:38:29;30.80;;;26.97;;
11016;SDS011;54687;50.800;6.772;2023-02-15T02:41:08;31.23;;;27.00;;
11016;SDS011;54687;50.800;6.772;2023-02-15T02:43:44;32.33;;;27.47;;
11016;SDS011;54687;50.800;6.772;2023-02-15T02:46:17;31.80;;;26.23;;
11016;SDS011;54687;50.800;6.772;2023-02-15T02:48:49;30.77;;;27.23;;
11016;SDS011;54687;50.800;6.772;2023-02-15T02:51:16;32.23;;;27.80;;
11016;SDS011;54687;50.800;6.772;2023-02-15T02:53:47;32.17;;;27.20;;
11016;SDS011;54687;50.800;6.772;2023-02-15T02:56:19;30.30;;;26.47;;
11016;SDS011;54687;50.800;6.772;2023-02-15T02:58:51;32.87;;;28.10;;
11016;SDS011;54687;50.800;6.772;2023-02-15T03:01:24;34.70;;;28.20;;
11016;SDS011;54687;50.800;6.772;2023-02-15T03:03:56;33.17;;;29.63;;
11016;SDS011;54687;50.800;6.772;2023-02-15T03:06:28;33.47;;;28.30;;
11016;SDS011;54687;50.800;6.772;2023-02-15T03:09:01;31.37;;;27.83;;
11016;SDS011;54687;50.800;6.772;2023-02-15T03:11:40;33.93;;;28.57;;
11016;SDS011;54687;50.800;6.772;2023-02-15T03:14:09;35.07;;;29.27;;
11016;SDS011;54687;50.800;6.772;2023-02-15T03:16:37;32.00;;;28.37;;
11016;SDS011;54687;50.800;6.772;2023-02-15T03:19:08;32.07;;;28.10;;
11016;SDS011;54687;50.800;6.772;2023-02-15T03:21:39;33.33;;;28.47;;
11016;SDS011;54687;50.800;6.772;2023-02-15T03:24:15;35.60;;;28.13;;
11016;SDS011;54687;50.800;6.772;2023-02-15T03:26:46;34.23;;;28.53;;
11016;SDS011;54687;50.800;6.772;2023-02-15T03:29:16;34.47;;;28.57;;
11016;SDS011;54687;50.800;6.772;2023-02-15T03:31:44;37.33;;;30.93;;
11016;SDS011;54687;50.800;6.772;2023-02-15T03:34:17;37.53;;;30.33;;
11016;SDS011;54687;50.800;6.772;2023-02-15T03:36:45;35.20;;;29.83;;
11016;SDS011;54687;50.800;6.772;2023-02-15T03:39:19;34.57;;;30.03;;
11016;SDS011;54687;50.800;6.772;2023-02-15T03:41:51;32.37;;;28.60;;
11016;SDS011;54687;50.800;6.772;2023-02-15T03:44:25;32.27;;;27.93;;
11016;SDS011;54687;50.800;6.772;2023-02-15T03:46:57;33.87;;;29.03;;
11016;SDS011;54687;50.800;6.772;2023-02-15T03:49:30;31.33;;;27.20;;
11016;SDS011;54687;50.800;6.772;2023-02-15T03:52:04;30.23;;;26.03;;
11016;SDS011;54687;50.800;6.772;2023-02-15T03:54:34;31.00;;;26.87;;
11016;SDS011;54687;50.800;6.772;2023-02-15T03:57:09;31.37;;;25.90;;
11016;SDS011;54687;50.800;6.772;2023-02-15T03:59:56;31.73;;;27.67;;
11016;SDS011;54687;50.800;6.772;2023-02-15T04:02:44;30.50;;;25.60;;
11016;SDS011;54687;50.800;6.772;2023-02-15T04:05:20;30.47;;;25.20;;
11016;SDS011;54687;50.800;6.772;2023-02-15T04:07:46;29.87;;;25.93;;
11016;SDS011;54687;50.800;6.772;2023-02-15T04:10:13;30.57;;;25.87;;
11016;SDS011;54687;50.800;6.772;2023-02-15T04:12:58;32.23;;;26.83;;
11016;SDS011;54687;50.800;6.772;2023-02-15T04:15:24;30.23;;;26.93;;
11016;SDS011;54687;50.800;6.772;2023-02-15T04:18:08;32.20;;;27.37;;
11016;SDS011;54687;50.800;6.772;2023-02-15T04:20:36;33.07;;;28.13;;
11016;SDS011;54687;50.800;6.772;2023-02-15T04:23:20;30.60;;;27.27;;
11016;SDS011;54687;50.800;6.772;2023-02-15T04:26:04;31.93;;;27.90;;
11016;SDS011;54687;50.800;6.772;2023-02-15T04:28:31;32.80;;;28.87;;
11016;SDS011;54687;50.800;6.772;2023-02-15T04:30:58;31.73;;;27.23;;
11016;SDS011;54687;50.800;6.772;2023-02-15T04:33:24;34.63;;;29.30;;
11016;SDS011;54687;50.800;6.772;2023-02-15T04:35:52;33.80;;;27.83;;
11016;SDS011;54687;50.800;6.772;2023-02-15T04:38:19;31.63;;;27.87;;
11016;SDS011;54687;50.800;6.772;2023-02-15T04:40:49;29.03;;;25.87;;
11016;SDS011;54687;50.800;6.772;2023-02-15T04:43:15;32.30;;;28.80;;
11016;SDS011;54687;50.800;6.772;2023-02-15T04:45:47;31.87;;;28.20;;
11016;SDS011;54687;50.800;6.772;2023-02-15T04:48:14;31.27;;;26.17;;
11016;SDS011;54687;50.800;6.772;2023-02-15T04:50:40;30.00;;;25.83;;
11016;SDS011;54687;50.800;6.772;2023-02-15T04:53:09;34.83;;;29.40;;
11016;SDS011;54687;50.800;6.772;2023-02-15T04:55:35;30.40;;;27.10;;
11016;SDS011;54687;50.800;6.772;2023-02-15T04:58:02;31.17;;;27.70;;
11016;SDS011;54687;50.800;6.772;2023-02-15T05:00:28;29.47;;;26.03;;
11016;SDS011;54687;50.800;6.772;2023-02-15T05:02:55;32.80;;;27.23;;
11016;SDS011;54687;50.800;6.772;2023-02-15T05:05:22;33.03;;;28.50;;
11016;SDS011;54687;50.800;6.772;2023-02-15T05:07:48;30.30;;;26.23;;
11016;SDS011;54687;50.800;6.772;2023-02-15T05:10:17;31.63;;;26.73;;
11016;SDS011;54687;50.800;6.772;2023-02-15T05:12:43;33.37;;;28.27;;
11016;SDS011;54687;50.800;6.772;2023-02-15T05:15:10;34.13;;;27.13;;
11016;SDS011;54687;50.800;6.772;2023-02-15T05:17:37;33.33;;;27.83;;
11016;SDS011;54687;50.800;6.772;2023-02-15T05:20:04;30.97;;;26.47;;
11016;SDS011;54687;50.800;6.772;2023-02-15T05:22:32;34.03;;;25.67;;
11016;SDS011;54687;50.800;6.772;2023-02-15T05:24:59;32.90;;;27.43;;
11016;SDS011;54687;50.800;6.772;2023-02-15T05:27:44;30.57;;;26.43;;
11016;SDS011;54687;50.800;6.772;2023-02-15T05:30:28;33.17;;;29.00;;
11016;SDS011;54687;50.800;6.772;2023-02-15T05:32:55;33.33;;;28.70;;
11016;SDS011;54687;50.800;6.772;2023-02-15T05:35:22;35.47;;;28.57;;
11016;SDS011;54687;50.800;6.772;2023-02-15T05:37:48;29.80;;;25.63;;
11016;SDS011;54687;50.800;6.772;2023-02-15T05:40:15;31.70;;;27.73;;
11016;SDS011;54687;50.800;6.772;2023-02-15T05:42:42;33.57;;;28.40;;
11016;SDS011;54687;50.800;6.772;2023-02-15T05:45:10;33.83;;;27.67;;
11016;SDS011;54687;50.800;6.772;2023-02-15T05:47:36;32.87;;;26.70;;
11016;SDS011;54687;50.800;6.772;2023-02-15T05:50:03;30.97;;;27.10;;
11016;SDS011;54687;50.800;6.772;2023-02-15T05:52:31;28.87;;;25.10;;
11016;SDS011;54687;50.800;6.772;2023-02-15T05:54:58;27.40;;;23.60;;
11016;SDS011;54687;50.800;6.772;2023-02-15T05:57:25;28.47;;;24.80;;
11016;SDS011;54687;50.800;6.772;2023-02-15T05:59:52;30.20;;;25.57;;
11016;SDS011;54687;50.800;6.772;2023-02-15T06:02:20;30.87;;;27.47;;
11016;SDS011;54687;50.800;6.772;2023-02-15T06:04:47;30.83;;;27.37;;
11016;SDS011;54687;50.800;6.772;2023-02-15T06:07:13;29.50;;;25.53;;
11016;SDS011;54687;50.800;6.772;2023-02-15T06:09:40;36.73;;;32.83;;
11016;SDS011;54687;50.800;6.772;2023-02-15T06:12:07;30.93;;;27.20;;
11016;SDS011;54687;50.800;6.772;2023-02-15T06:14:33;29.83;;;26.47;;
11016;SDS011;54687;50.800;6.772;2023-02-15T06:17:00;31.10;;;27.00;;
11016;SDS011;54687;50.800;6.772;2023-02-15T06:19:28;29.50;;;26.07;;
11016;SDS011;54687;50.800;6.772;2023-02-15T06:21:54;35.60;;;26.67;;
11016;SDS011;54687;50.800;6.772;2023-02-15T06:24:21;30.97;;;26.57;;
11016;SDS011;54687;50.800;6.772;2023-02-15T06:26:48;27.17;;;24.20;;
11016;SDS011;54687;50.800;6.772;2023-02-15T06:29:14;33.10;;;26.90;;
11016;SDS011;54687;50.800;6.772;2023-02-15T06:31:41;31.90;;;26.27;;
11016;SDS011;54687;50.800;6.772;2023-02-15T06:34:08;29.73;;;25.53;;
11016;SDS011;54687;50.800;6.772;2023-02-15T06:36:36;31.70;;;26.37;;
11016;SDS011;54687;50.800;6.772;2023-02-15T06:39:03;31.57;;;26.47;;
11016;SDS011;54687;50.800;6.772;2023-02-15T06:41:30;30.73;;;26.50;;
11016;SDS011;54687;50.800;6.772;2023-02-15T06:43:56;31.97;;;26.03;;
11016;SDS011;54687;50.800;6.772;2023-02-15T06:46:23;31.83;;;27.13;;
11016;SDS011;54687;50.800;6.772;2023-02-15T06:48:50;32.20;;;27.83;;
11016;SDS011;54687;50.800;6.772;2023-02-15T06:51:16;31.83;;;26.63;;
11016;SDS011;54687;50.800;6.772;2023-02-15T06:53:44;29.93;;;26.60;;
11016;SDS011;54687;50.800;6.772;2023-02-15T06:56:11;27.67;;;24.20;;
11016;SDS011;54687;50.800;6.772;2023-02-15T06:58:38;29.40;;;25.70;;
11016;SDS011;54687;50.800;6.772;2023-02-15T07:01:06;30.50;;;26.20;;
11016;SDS011;54687;50.800;6.772;2023-02-15T07:03:33;29.93;;;26.17;;
11016;SDS011;54687;50.800;6.772;2023-02-15T07:06:01;30.57;;;27.30;;
11016;SDS011;54687;50.800;6.772;2023-02-15T07:08:31;31.80;;;27.23;;
11016;SDS011;54687;50.800;6.772;2023-02-15T07:10:59;27.17;;;23.13;;
11016;SDS011;54687;50.800;6.772;2023-02-15T07:13:40;28.33;;;24.53;;
11016;SDS011;54687;50.800;6.772;2023-02-15T07:16:07;30.87;;;25.30;;
11016;SDS011;54687;50.800;6.772;2023-02-15T07:18:34;30.40;;;25.63;;
11016;SDS011;54687;50.800;6.772;2023-02-15T07:21:02;27.60;;;24.63;;
11016;SDS011;54687;50.800;6.772;2023-02-15T07:23:29;28.23;;;24.53;;
11016;SDS011;54687;50.800;6.772;2023-02-15T07:25:56;27.53;;;24.30;;
11016;SDS011;54687;50.800;6.772;2023-02-15T07:28:24;29.43;;;25.10;;
11016;SDS011;54687;50.800;6.772;2023-02-15T07:30:51;28.30;;;25.27;;
11016;SDS011;54687;50.800;6.772;2023-02-15T07:33:18;30.00;;;24.77;;
11016;SDS011;54687;50.800;6.772;2023-02-15T07:35:52;27.20;;;23.37;;
11016;SDS011;54687;50.800;6.772;2023-02-15T07:38:20;30.37;;;25.73;;
11016;SDS011;54687;50.800;6.772;2023-02-15T07:40:47;27.83;;;24.77;;
11016;SDS011;54687;50.800;6.772;2023-02-15T07:43:14;30.27;;;26.37;;
11016;SDS011;54687;50.800;6.772;2023-02-15T07:45:42;27.00;;;23.57;;
11016;SDS011;54687;50.800;6.772;2023-02-15T07:48:09;28.87;;;24.00;;
11016;SDS011;54687;50.800;6.772;2023-02-15T07:50:35;28.70;;;23.60;;
11016;SDS011;54687;50.800;6.772;2023-02-15T07:53:02;27.83;;;23.03;;
11016;SDS011;54687;50.800;6.772;2023-02-15T07:55:30;26.00;;;23.10;;
11016;SDS011;54687;50.800;6.772;2023-02-15T07:57:56;27.53;;;23.97;;
11016;SDS011;54687;50.800;6.772;2023-02-15T08:00:23;27.83;;;24.00;;
11016;SDS011;54687;50.800;6.772;2023-02-15T08:02:53;29.13;;;23.17;;
11016;SDS011;54687;50.800;6.772;2023-02-15T08:05:40;26.50;;;23.57;;
11016;SDS011;54687;50.800;6.772;2023-02-15T08:08:07;26.33;;;22.63;;
11016;SDS011;54687;50.800;6.772;2023-02-15T08:10:57;27.70;;;23.17;;
11016;SDS011;54687;50.800;6.772;2023-02-15T08:13:42;23.77;;;20.93;;
11016;SDS011;54687;50.800;6.772;2023-02-15T08:16:19;24.47;;;21.73;;
11016;SDS011;54687;50.800;6.772;2023-02-15T08:18:48;27.93;;;22.33;;
11016;SDS011;54687;50.800;6.772;2023-02-15T08:21:14;24.37;;;21.77;;
11016;SDS011;54687;50.800;6.772;2023-02-15T08:23:41;27.73;;;22.27;;
11016;SDS011;54687;50.800;6.772;2023-02-15T08:26:08;23.23;;;20.73;;
11016;SDS011;54687;50.800;6.772;2023-02-15T08:28:34;24.67;;;20.47;;
11016;SDS011;54687;50.800;6.772;2023-02-15T08:31:05;24.33;;;21.47;;
11016;SDS011;54687;50.800;6.772;2023-02-15T08:33:32;25.87;;;21.20;;
11016;SDS011;54687;50.800;6.772;2023-02-15T08:36:03;23.27;;;20.67;;
11016;SDS011;54687;50.800;6.772;2023-02-15T08:38:30;25.40;;;20.73;;
11016;SDS011;54687;50.800;6.772;2023-02-15T08:40:57;25.33;;;22.57;;
11016;SDS011;54687;50.800;6.772;2023-02-15T08:43:24;23.03;;;20.03;;
11016;SDS011;54687;50.800;6.772;2023-02-15T08:45:50;24.40;;;21.10;;
11016;SDS011;54687;50.800;6.772;2023-02-15T08:48:17;25.00;;;22.00;;
11016;SDS011;54687;50.800;6.772;2023-02-15T08:50:44;23.83;;;20.90;;
11016;SDS011;54687;50.800;6.772;2023-02-15T08:53:12;22.73;;;20.33;;
11016;SDS011;54687;50.800;6.772;2023-02-15T08:55:38;23.43;;;20.90;;
11016;SDS011;54687;50.800;6.772;2023-02-15T08:58:05;22.17;;;19.73;;
11016;SDS011;54687;50.800;6.772;2023-02-15T09:00:32;23.23;;;20.40;;
11016;SDS011;54687;50.800;6.772;2023-02-15T09:03:00;22.77;;;20.00;;
11016;SDS011;54687;50.800;6.772;2023-02-15T09:05:27;23.13;;;20.73;;
11016;SDS011;54687;50.800;6.772;2023-02-15T09:07:53;22.50;;;19.80;;
11016;SDS011;54687;50.800;6.772;2023-02-15T09:10:21;22.07;;;19.33;;
11016;SDS011;54687;50.800;6.772;2023-02-15T09:12:48;22.83;;;20.33;;
11016;SDS011;54687;50.800;6.772;2023-02-15T09:15:16;23.03;;;19.53;;
11016;SDS011;54687;50.800;6.772;2023-02-15T09:17:42;21.47;;;18.97;;
11016;SDS011;54687;50.800;6.772;2023-02-15T09:20:09;21.45;;;18.73;;
11016;SDS011;54687;50.800;6.772;2023-02-15T09:22:38;21.83;;;19.42;;
11016;SDS011;54687;50.800;6.772;2023-02-15T09:25:05;21.80;;;19.02;;
11016;SDS011;54687;50.800;6.772;2023-02-15T09:27:33;21.80;;;18.40;;
11016;SDS011;54687;50.800;6.772;2023-02-15T09:30:01;22.23;;;16.15;;
11016;SDS011;54687;50.800;6.772;2023-02-15T09:32:29;19.92;;;17.77;;
11016;SDS011;54687;50.800;6.772;2023-02-15T09:34:55;21.50;;;17.83;;
11016;SDS011;54687;50.800;6.772;2023-02-15T09:37:22;20.05;;;16.95;;
11016;SDS011;54687;50.800;6.772;2023-02-15T09:39:49;23.02;;;17.60;;
11016;SDS011;54687;50.800;6.772;2023-02-15T09:42:26;18.10;;;16.15;;
11016;SDS011;54687;50.800;6.772;2023-02-15T09:45:09;21.30;;;17.30;;
11016;SDS011;54687;50.800;6.772;2023-02-15T09:47:54;19.65;;;16.63;;
11016;SDS011;54687;50.800;6.772;2023-02-15T09:50:37;22.25;;;17.13;;
11016;SDS011;54687;50.800;6.772;2023-02-15T09:53:17;19.88;;;16.33;;
11016;SDS011;54687;50.800;6.772;2023-02-15T09:55:53;22.13;;;17.48;;
11016;SDS011;54687;50.800;6.772;2023-02-15T09:58:30;26.65;;;19.33;;
11016;SDS011;54687;50.800;6.772;2023-02-15T10:01:09;23.17;;;19.95;;
11016;SDS011;54687;50.800;6.772;2023-02-15T10:03:47;25.35;;;19.58;;
11016;SDS011;54687;50.800;6.772;2023-02-15T10:06:28;18.80;;;16.83;;
11016;SDS011;54687;50.800;6.772;2023-02-15T10:09:02;18.92;;;16.45;;
11016;SDS011;54687;50.800;6.772;2023-02-15T10:11:40;20.98;;;17.25;;
11016;SDS011;54687;50.800;6.772;2023-02-15T10:14:23;21.35;;;16.80;;
11016;SDS011;54687;50.800;6.772;2023-02-15T10:17:06;19.50;;;16.50;;
11016;SDS011;54687;50.800;6.772;2023-02-15T10:19:48;20.30;;;16.38;;
11016;SDS011;54687;50.800;6.772;2023-02-15T10:22:33;19.27;;;16.23;;
11016;SDS011;54687;50.800;6.772;2023-02-15T10:25:07;20.10;;;17.80;;
11016;SDS011;54687;50.800;6.772;2023-02-15T10:27:46;19.35;;;16.10;;
11016;SDS011;54687;50.800;6.772;2023-02-15T10:30:15;20.10;;;17.50;;
11016;SDS011;54687;50.800;6.772;2023-02-15T10:32:47;18.60;;;16.70;;
11016;SDS011;54687;50.800;6.772;2023-02-15T10:35:22;18.25;;;16.35;;
11016;SDS011;54687;50.800;6.772;2023-02-15T10:38:02;17.45;;;15.65;;
11016;SDS011;54687;50.800;6.772;2023-02-15T10:40:44;21.90;;;16.50;;
11016;SDS011;54687;50.800;6.772;2023-02-15T10:43:20;19.48;;;16.85;;
11016;SDS011;54687;50.800;6.772;2023-02-15T10:45:58;18.50;;;16.38;;
11016;SDS011;54687;50.800;6.772;2023-02-15T10:48:50;21.38;;;18.35;;
11016;SDS011;54687;50.800;6.772;2023-02-15T10:51:28;20.20;;;18.10;;
11016;SDS011;54687;50.800;6.772;2023-02-15T10:54:09;19.52;;;17.23;;
11016;SDS011;54687;50.800;6.772;2023-02-15T10:56:50;18.60;;;16.73;;
11016;SDS011;54687;50.800;6.772;2023-02-15T10:59:30;18.02;;;16.13;;
11016;SDS011;54687;50.800;6.772;2023-02-15T11:02:10;16.88;;;14.93;;
11016;SDS011;54687;50.800;6.772;2023-02-15T11:04:59;18.02;;;16.13;;
11016;SDS011;54687;50.800;6.772;2023-02-15T11:07:42;18.67;;;16.70;;
11016;SDS011;54687;50.800;6.772;2023-02-15T11:10:14;17.98;;;15.57;;
11016;SDS011;54687;50.800;6.772;2023-02-15T11:12:52;19.15;;;17.00;;
11016;SDS011;54687;50.800;6.772;2023-02-15T11:15:24;18.95;;;16.95;;
11016;SDS011;54687;50.800;6.772;2023-02-15T11:17:57;17.27;;;15.48;;
11016;SDS011;54687;50.800;6.772;2023-02-15T11:20:29;17.08;;;15.27;;
11016;SDS011;54687;50.800;6.772;2023-02-15T11:23:01;18.92;;;15.88;;
11016;SDS011;54687;50.800;6.772;2023-02-15T11:25:29;17.50;;;15.60;;
11016;SDS011;54687;50.800;6.772;2023-02-15T11:27:58;16.23;;;14.05;;
11016;SDS011;54687;50.800;6.772;2023-02-15T11:30:27;16.50;;;13.73;;
11016;SDS011;54687;50.800;6.772;2023-02-15T11:33:05;18.13;;;15.45;;
11016;SDS011;54687;50.800;6.772;2023-02-15T11:35:34;18.88;;;15.13;;
11016;SDS011;54687;50.800;6.772;2023-02-15T11:38:16;16.70;;;14.90;;
11016;SDS011;54687;50.800;6.772;2023-02-15T11:40:46;15.73;;;13.98;;
11016;SDS011;54687;50.800;6.772;2023-02-15T11:43:16;16.80;;;14.68;;
11016;SDS011;54687;50.800;6.772;2023-02-15T11:45:48;17.13;;;15.32;;
11016;SDS011;54687;50.800;6.772;2023-02-15T11:48:14;16.55;;;14.85;;
11016;SDS011;54687;50.800;6.772;2023-02-15T11:50:44;15.75;;;14.20;;
11016;SDS011;54687;50.800;6.772;2023-02-15T11:53:12;17.20;;;15.13;;
11016;SDS011;54687;50.800;6.772;2023-02-15T11:55:41;16.77;;;14.40;;
11016;SDS011;54687;50.800;6.772;2023-02-15T11:58:11;15.15;;;13.55;;
11016;SDS011;54687;50.800;6.772;2023-02-15T12:00:47;15.65;;;13.95;;
11016;SDS011;54687;50.800;6.772;2023-02-15T12:03:18;16.20;;;14.60;;
11016;SDS011;54687;50.800;6.772;2023-02-15T12:06:03;16.23;;;14.45;;
11016;SDS011;54687;50.800;6.772;2023-02-15T12:08:34;15.90;;;14.30;;
11016;SDS011;54687;50.800;6.772;2023-02-15T12:11:06;15.88;;;14.27;;
11016;SDS011;54687;50.800;6.772;2023-02-15T12:13:37;16.10;;;14.45;;
11016;SDS011;54687;50.800;6.772;2023-02-15T12:16:20;17.40;;;14.25;;
11016;SDS011;54687;50.800;6.772;2023-02-15T12:18:47;16.30;;;14.50;;
11016;SDS011;54687;50.800;6.772;2023-02-15T12:21:16;21.17;;;14.88;;
11016;SDS011;54687;50.800;6.772;2023-02-15T12:23:53;17.20;;;15.40;;
11016;SDS011;54687;50.800;6.772;2023-02-15T12:26:25;15.70;;;14.20;;
11016;SDS011;54687;50.800;6.772;2023-02-15T12:28:54;16.50;;;14.15;;
11016;SDS011;54687;50.800;6.772;2023-02-15T12:31:27;15.70;;;14.10;;
11016;SDS011;54687;50.800;6.772;2023-02-15T12:33:59;15.25;;;13.77;;
11016;SDS011;54687;50.800;6.772;2023-02-15T12:36:30;16.15;;;14.55;;
11016;SDS011;54687;50.800;6.772;2023-02-15T12:39:16;16.58;;;14.77;;
11016;SDS011;54687;50.800;6.772;2023-02-15T12:41:46;16.60;;;14.63;;
11016;SDS011;54687;50.800;6.772;2023-02-15T12:44:23;15.90;;;14.30;;
11016;SDS011;54687;50.800;6.772;2023-02-15T12:46:55;17.83;;;14.63;;
11016;SDS011;54687;50.800;6.772;2023-02-15T12:49:24;15.77;;;13.95;;
11016;SDS011;54687;50.800;6.772;2023-02-15T12:51:53;15.75;;;14.23;;
11016;SDS011;54687;50.800;6.772;2023-02-15T12:54:34;16.27;;;14.57;;
11016;SDS011;54687;50.800;6.772;2023-02-15T12:57:23;16.17;;;14.55;;
11016;SDS011;54687;50.800;6.772;2023-02-15T12:59:53;17.63;;;15.00;;
11016;SDS011;54687;50.800;6.772;2023-02-15T13:02:23;15.65;;;14.05;;
11016;SDS011;54687;50.800;6.772;2023-02-15T13:04:53;15.68;;;14.07;;
11016;SDS011;54687;50.800;6.772;2023-02-15T13:07:24;14.50;;;13.02;;
11016;SDS011;54687;50.800;6.772;2023-02-15T13:09:55;14.75;;;13.25;;
11016;SDS011;54687;50.800;6.772;2023-02-15T13:12:23;14.55;;;13.15;;
11016;SDS011;54687;50.800;6.772;2023-02-15T13:14:52;14.90;;;13.32;;
11016;SDS011;54687;50.800;6.772;2023-02-15T13:17:21;14.90;;;13.40;;
11016;SDS011;54687;50.800;6.772;2023-02-15T13:19:54;14.73;;;13.23;;
11016;SDS011;54687;50.800;6.772;2023-02-15T13:22:28;15.70;;;13.23;;
11016;SDS011;54687;50.800;6.772;2023-02-15T13:25:01;16.15;;;13.05;;
11016;SDS011;54687;50.800;6.772;2023-02-15T13:27:33;14.48;;;12.98;;
11016;SDS011;54687;50.800;6.772;2023-02-15T13:30:08;19.55;;;12.68;;
11016;SDS011;54687;50.800;6.772;2023-02-15T13:32:44;14.38;;;12.75;;
11016;SDS011;54687;50.800;6.772;2023-02-15T13:35:15;14.07;;;12.55;;
11016;SDS011;54687;50.800;6.772;2023-02-15T13:40:44;14.65;;;13.15;;
11016;SDS011;54687;50.800;6.772;2023-02-15T13:43:20;14.90;;;13.32;;
11016;SDS011;54687;50.800;6.772;2023-02-15T13:46:00;14.52;;;13.02;;
11016;SDS011;54687;50.800;6.772;2023-02-15T13:48:40;15.98;;;13.43;;
11016;SDS011;54687;50.800;6.772;2023-02-15T13:51:17;15.35;;;13.60;;
11016;SDS011;54687;50.800;6.772;2023-02-15T13:54:00;14.48;;;12.25;;
11016;SDS011;54687;50.800;6.772;2023-02-15T13:56:40;18.80;;;13.50;;
11016;SDS011;54687;50.800;6.772;2023-02-15T13:59:27;13.82;;;12.43;;
11016;SDS011;54687;50.800;6.772;2023-02-15T14:02:15;14.75;;;13.15;;
11016;SDS011;54687;50.800;6.772;2023-02-15T14:05:15;14.05;;;12.55;;
11016;SDS011;54687;50.800;6.772;2023-02-15T14:08:07;13.48;;;12.00;;
11016;SDS011;54687;50.800;6.772;2023-02-15T14:10:49;14.27;;;12.70;;
11016;SDS011;54687;50.800;6.772;2023-02-15T14:13:28;13.55;;;12.10;;
11016;SDS011;54687;50.800;6.772;2023-02-15T14:16:12;14.30;;;12.80;;
11016;SDS011;54687;50.800;6.772;2023-02-15T14:18:46;14.50;;;12.95;;
11016;SDS011;54687;50.800;6.772;2023-02-15T14:21:19;16.00;;;13.55;;
11016;SDS011;54687;50.800;6.772;2023-02-15T14:23:56;15.05;;;13.38;;
11016;SDS011;54687;50.800;6.772;2023-02-15T14:26:35;14.07;;;12.57;;
11016;SDS011;54687;50.800;6.772;2023-02-15T14:29:16;15.00;;;12.82;;
11016;SDS011;54687;50.800;6.772;2023-02-15T14:31:52;14.93;;;13.40;;
11016;SDS011;54687;50.800;6.772;2023-02-15T14:34:22;13.77;;;12.05;;
11016;SDS011;54687;50.800;6.772;2023-02-15T14:36:54;14.13;;;12.35;;
11016;SDS011;54687;50.800;6.772;2023-02-15T14:39:26;17.80;;;12.13;;
11016;SDS011;54687;50.800;6.772;2023-02-15T14:42:18;14.82;;;13.25;;
11016;SDS011;54687;50.800;6.772;2023-02-15T14:44:52;13.82;;;12.40;;
11016;SDS011;54687;50.800;6.772;2023-02-15T14:47:26;14.40;;;12.10;;
11016;SDS011;54687;50.800;6.772;2023-02-15T14:49:57;18.63;;;12.57;;
11016;SDS011;54687;50.800;6.772;2023-02-15T14:52:25;14.10;;;12.32;;
11016;SDS011;54687;50.800;6.772;2023-02-15T14:54:57;14.70;;;12.85;;